Time;durP1;ratioP1;P1;durP2;ratioP2;P2;SDS_P1;SDS_P2;PMS_P1;PMS_P2;Temp;Humidity;BMP_temperature;BMP_pressure;BME280_temperature;BME280_humidity;BME280_pressure;Samples;Min_cycle;Max_cycle;Signal;HPM_P1;HPM_P2
2022/10/03 00:00:37;;;;;;;4.97;4.68;;;;;;;8.89;100.00;102030.50;6034554;23;20010;-71
2022/10/03 00:03:28;;;;;;;4.88;4.57;;;;;;;8.85;100.00;102028.84;6002537;23;20019;-71
2022/10/03 00:06:30;;;;;;;4.88;4.47;;;;;;;7.49;100.00;101819.16;5990329;23;20011;-70
2022/10/03 00:09:43;;;;;;;4.40;4.20;;;;;;;8.81;100.00;102044.66;6022506;23;20477;-71
2022/10/03 00:12:46;;;;;;;4.35;4.15;;;;;;;8.37;100.00;101972.34;6008360;23;20022;-74
2022/10/03 00:15:37;;;;;;;4.82;4.53;;;;;;;8.76;100.00;102043.03;6013826;23;20056;-71
2022/10/03 00:18:37;;;;;;;6.10;5.53;;;;;;;8.74;100.00;102050.06;6000038;23;20019;-70
2022/10/03 00:21:53;;;;;;;4.75;4.55;;;;;;;8.73;100.00;102048.31;6028467;23;20015;-70
2022/10/03 00:24:44;;;;;;;4.82;4.53;;;;;;;7.87;100.00;101918.53;6024372;23;20019;-71
2022/10/03 00:27:33;;;;;;;6.30;4.65;;;;;;;8.70;100.00;102058.88;5999456;23;20086;-71
2022/10/03 00:31:01;;;;;;;4.63;4.43;;;;;;;8.55;100.00;102023.41;5991801;23;20019;-71
2022/10/03 00:33:45;;;;;;;4.72;4.43;;;;;;;8.65;100.00;102052.00;6009813;23;20011;-71
2022/10/03 00:36:57;;;;;;;5.00;4.70;;;;;;;8.67;100.00;102051.06;5996779;23;20043;-70
2022/10/03 00:39:55;;;;;;;5.13;4.70;;;;;;;8.65;100.00;102059.84;5995446;23;20031;-70
2022/10/03 00:42:41;;;;;;;5.72;5.00;;;;;;;8.66;100.00;102051.09;6017890;23;20706;-71
2022/10/03 00:45:48;;;;;;;4.45;4.25;;;;;;;8.47;100.00;102024.50;6019309;23;20030;-71
2022/10/03 00:48:34;;;;;;;4.97;4.70;;;;;;;8.63;100.00;102053.81;6003352;23;20018;-71
2022/10/03 00:51:09;;;;;;;4.57;4.35;;;;;;;8.60;100.00;102057.34;6029848;23;20039;-71
2022/10/03 00:54:02;;;;;;;4.35;4.15;;;;;;;7.42;100.00;101856.78;6026956;23;20246;-72
2022/10/03 00:56:56;;;;;;;4.20;3.95;;;;;;;8.61;100.00;102051.22;6024407;23;20710;-72
2022/10/03 00:59:45;;;;;;;4.45;4.25;;;;;;;8.58;100.00;102053.91;5937142;23;20097;-70
2022/10/03 01:02:44;;;;;;;4.95;4.55;;;;;;;8.58;100.00;102056.53;6010604;23;20018;-71
2022/10/03 01:05:48;;;;;;;15.13;5.38;;;;;;;8.55;100.00;102057.44;5999405;23;20055;-72
2022/10/03 01:08:48;;;;;;;4.50;4.30;;;;;;;8.53;100.00;102067.06;6027387;23;20023;-70
2022/10/03 01:11:38;;;;;;;4.32;4.13;;;;;;;8.52;100.00;102064.47;5986300;23;20027;-72
2022/10/03 01:14:30;;;;;;;5.18;4.78;;;;;;;8.54;100.00;102062.72;5989862;23;20079;-70
2022/10/03 01:17:05;;;;;;;5.47;5.18;;;;;;;8.54;100.00;102074.03;6016996;23;20027;-71
2022/10/03 01:20:31;;;;;;;5.30;4.95;;;;;;;8.52;100.00;102064.47;6022541;23;20051;-70
2022/10/03 01:24:09;;;;;;;5.00;4.70;;;;;;;8.47;100.00;102063.75;5980627;23;20408;-71
2022/10/03 01:27:29;;;;;;;5.60;4.60;;;;;;;8.43;100.00;102069.94;6030223;23;20019;-72
2022/10/03 01:30:22;;;;;;;7.20;4.88;;;;;;;8.39;100.00;102063.88;5837869;24;20025;-72
2022/10/03 01:33:46;;;;;;;5.80;5.40;;;;;;;8.36;100.00;102062.19;5871755;24;20040;-72
2022/10/03 01:36:28;;;;;;;5.05;4.75;;;;;;;8.32;100.00;102057.06;5851864;24;20346;-72
2022/10/03 01:39:34;;;;;;;5.30;4.80;;;;;;;8.28;100.00;102058.88;5991015;23;20023;-71
2022/10/03 01:42:32;;;;;;;6.75;5.35;;;;;;;8.22;100.00;102066.84;5992517;23;20098;-71
2022/10/03 01:45:45;;;;;;;4.50;4.20;;;;;;;8.16;100.00;102061.75;5984093;23;20307;-70
2022/10/03 01:48:43;;;;;;;6.68;4.95;;;;;;;8.11;100.00;102069.66;5931313;24;20641;-71
2022/10/03 01:51:18;;;;;;;4.43;4.22;;;;;;;8.05;100.00;102076.78;5961879;24;20123;-71
2022/10/03 01:54:25;;;;;;;5.15;4.85;;;;;;;8.01;100.00;102070.72;5976719;23;20027;-72
2022/10/03 01:57:34;;;;;;;4.88;4.47;;;;;;;7.57;100.00;102007.09;6009043;23;20027;-71
2022/10/03 02:00:17;;;;;;;4.75;4.43;;;;;;;7.88;100.00;102080.56;5954108;23;20448;-71
2022/10/03 02:03:10;;;;;;;4.60;4.30;;;;;;;7.83;100.00;102089.38;6002984;23;20047;-71
2022/10/03 02:06:00;;;;;;;4.95;4.40;;;;;;;6.99;100.00;101957.63;5995229;23;20077;-70
2022/10/03 02:08:54;;;;;;;5.15;4.65;;;;;;;7.29;100.00;102006.75;5974304;23;20054;-71
2022/10/03 02:11:41;;;;;;;;;;;;;;;7.71;100.00;102098.31;6021502;23;20050;-71
2022/10/03 02:14:33;;;;;;;4.50;4.30;;;;;;;6.82;100.00;101964.91;5982740;23;20456;-71
2022/10/03 02:17:22;;;;;;;4.15;3.95;;;;;;;7.48;100.00;102078.66;6018874;23;20094;-71
2022/10/03 02:20:24;;;;;;;7.38;4.38;;;;;;;7.63;100.00;102105.41;6000459;23;20034;-72
2022/10/03 02:22:56;;;;;;;4.13;3.92;;;;;;;7.61;100.00;102125.47;6016030;23;20011;-71
2022/10/03 02:25:43;;;;;;;4.30;4.10;;;;;;;7.58;100.00;102100.28;5991554;23;20086;-70
2022/10/03 02:28:36;;;;;;;4.13;3.92;;;;;;;7.54;100.00;102104.69;5992817;23;20031;-71
2022/10/03 02:31:34;;;;;;;4.50;4.30;;;;;;;7.51;100.00;102096.03;6028707;23;20666;-72
2022/10/03 02:34:39;;;;;;;4.28;4.07;;;;;;;7.49;100.00;102096.06;6020108;23;20007;-71
2022/10/03 02:37:26;;;;;;;4.72;4.53;;;;;;;7.13;100.00;102038.31;6024278;23;20470;-71
2022/10/03 02:40:17;;;;;;;4.80;4.50;;;;;;;7.43;100.00;102095.31;6005614;23;20050;-71
2022/10/03 02:43:25;;;;;;;5.00;4.70;;;;;;;7.40;100.00;102091.00;6024674;23;20019;-72
2022/10/03 02:46:38;;;;;;;4.50;4.30;;;;;;;7.35;100.00;102096.28;6022763;23;20027;-72
2022/10/03 02:49:43;;;;;;;4.57;4.38;;;;;;;7.27;100.00;102089.47;6006025;23;20011;-72
2022/10/03 02:52:36;;;;;;;5.85;5.47;;;;;;;7.11;100.00;102081.00;6003044;23;20025;-72
2022/10/03 02:55:36;;;;;;;4.75;4.50;;;;;;;7.18;100.00;102100.94;6001017;23;20081;-71
2022/10/03 02:58:27;;;;;;;5.63;4.63;;;;;;;7.13;100.00;102105.34;6015276;23;20029;-70
2022/10/03 03:01:29;;;;;;;5.32;4.65;;;;;;;7.08;100.00;102099.34;6023428;23;20023;-70
2022/10/03 03:04:07;;;;;;;4.15;3.80;;;;;;;7.02;100.00;102099.44;5999971;23;20030;-71
2022/10/03 03:06:58;;;;;;;4.50;4.20;;;;;;;6.96;100.00;102106.47;6021157;23;20183;-70
2022/10/03 03:09:54;;;;;;;4.43;4.13;;;;;;;6.88;100.00;102112.69;6005620;23;20172;-71
2022/10/03 03:12:54;;;;;;;3.80;3.70;;;;;;;6.85;100.00;102110.97;6021494;23;20058;-73
2022/10/03 03:15:58;;;;;;;4.47;4.28;;;;;;;6.82;100.00;102116.22;6025700;23;20077;-71
2022/10/03 03:18:45;;;;;;;5.00;4.65;;;;;;;6.79;100.00;102124.97;6012744;23;20023;-71
2022/10/03 03:22:12;;;;;;;4.60;4.30;;;;;;;6.79;100.00;102119.75;6029124;23;20011;-72
2022/10/03 03:25:37;;;;;;;4.57;4.38;;;;;;;6.81;100.00;102121.47;6002364;23;20474;-71
2022/10/03 03:32:04;;;;;;;4.57;4.38;;;;;;;6.08;100.00;101999.00;5980295;23;20016;-71
2022/10/03 03:34:58;;;;;;;4.18;3.97;;;;;;;6.78;100.00;102112.78;5974536;23;20019;-72
2022/10/03 03:38:29;;;;;;;4.05;3.85;;;;;;;6.76;100.00;102125.00;6002089;23;20614;-72
2022/10/03 03:42:00;;;;;;;4.43;4.22;;;;;;;6.75;100.00;102123.25;5897201;24;20064;-72
2022/10/03 03:45:00;;;;;;;3.80;3.60;;;;;;;6.75;100.00;102115.44;5834624;24;20513;-72
2022/10/03 03:48:01;;;;;;;4.50;4.22;;;;;;;6.79;100.00;102126.69;5872726;24;20037;-72
2022/10/03 03:51:11;;;;;;;4.22;4.03;;;;;;;6.61;100.00;102099.09;6015517;23;20046;-71
2022/10/03 03:54:39;;;;;;;3.95;3.75;;;;;;;6.71;100.00;102129.41;6001762;23;20054;-72
2022/10/03 03:57:33;;;;;;;4.10;3.90;;;;;;;6.68;100.00;102123.38;6014791;23;20023;-73
2022/10/03 04:00:49;;;;;;;4.50;4.25;;;;;;;6.65;100.00;102124.25;5968917;23;20071;-71
2022/10/03 04:03:59;;;;;;;3.78;3.67;;;;;;;6.64;100.00;102133.00;5982560;23;20023;-71
2022/10/03 04:06:41;;;;;;;3.83;3.65;;;;;;;6.62;100.00;102134.75;6029219;23;20031;-72
2022/10/03 04:09:22;;;;;;;3.70;3.60;;;;;;;6.60;100.00;102131.31;6030275;23;20011;-71
2022/10/03 04:12:09;;;;;;;3.63;3.53;;;;;;;6.60;100.00;102139.13;6021764;23;20102;-71
2022/10/03 04:14:54;;;;;;;4.35;4.13;;;;;;;6.58;100.00;102130.47;5990195;23;20059;-72
2022/10/03 04:21:11;;;;;;;3.90;3.70;;;;;;;6.54;100.00;102134.84;6020572;23;20027;-71
2022/10/03 04:24:18;;;;;;;3.90;3.70;;;;;;;6.12;100.00;102066.69;6014186;23;20090;-74
2022/10/03 04:27:31;;;;;;;3.88;3.70;;;;;;;6.61;100.00;102138.22;5990535;23;20069;-73
2022/10/03 04:30:10;;;;;;;4.32;4.13;;;;;;;5.89;100.00;102033.03;6017954;23;20023;-73
2022/10/03 04:32:45;;;;;;;4.10;3.90;;;;;;;6.70;100.00;102129.44;5998463;23;20019;-73
2022/10/03 04:35:48;;;;;;;6.10;5.70;;;;;;;6.74;100.00;102133.75;6017669;23;20052;-73
2022/10/03 04:38:38;;;;;;;3.85;3.65;;;;;;;6.76;100.00;102158.91;6021819;23;20022;-73
2022/10/03 04:41:11;;;;;;;4.03;3.83;;;;;;;6.77;100.00;102128.47;6025951;23;20730;-73
2022/10/03 04:44:25;;;;;;;4.10;3.90;;;;;;;6.81;100.00;102142.34;6020487;23;20409;-73
2022/10/03 04:47:03;;;;;;;4.53;4.28;;;;;;;6.55;100.00;102084.38;5964567;23;20035;-72
2022/10/03 04:49:38;;;;;;;4.00;3.80;;;;;;;6.33;100.00;102051.66;5991276;23;20094;-73
2022/10/03 04:52:18;;;;;;;4.32;4.07;;;;;;;6.85;100.00;102139.66;6020087;23;20023;-73
2022/10/03 04:55:18;;;;;;;4.15;3.90;;;;;;;6.85;100.00;102130.97;5989492;23;20031;-72
2022/10/03 04:58:07;;;;;;;4.28;4.07;;;;;;;6.84;100.00;102137.09;6025013;23;20114;-72
2022/10/03 05:00:55;;;;;;;4.10;3.90;;;;;;;6.85;100.00;102128.38;6024755;23;20480;-72
2022/10/03 05:04:03;;;;;;;4.35;4.15;;;;;;;6.36;100.00;102047.28;6023604;23;20023;-73
2022/10/03 05:06:36;;;;;;;4.00;3.80;;;;;;;6.84;100.00;102131.88;6021290;23;20256;-73
2022/10/03 05:09:16;;;;;;;3.78;3.67;;;;;;;6.84;100.00;102137.09;6030333;23;20023;-73
2022/10/03 05:12:06;;;;;;;3.92;3.72;;;;;;;6.82;100.00;102134.50;6024177;23;20262;-73
2022/10/03 05:15:00;;;;;;;4.15;3.95;;;;;;;6.81;100.00;102139.72;5999788;23;20250;-72
2022/10/03 05:17:43;;;;;;;3.97;3.78;;;;;;;6.73;100.00;102138.06;6022978;23;20371;-73
2022/10/03 05:20:39;;;;;;;4.05;3.85;;;;;;;6.76;100.00;102145.03;6014385;23;20195;-72
2022/10/03 05:23:19;;;;;;;5.55;4.90;;;;;;;6.72;100.00;102146.81;6018207;23;20038;-73
2022/10/03 05:25:54;;;;;;;4.30;4.00;;;;;;;6.44;100.00;102111.53;6024313;23;20023;-72
2022/10/03 05:28:39;;;;;;;4.88;4.55;;;;;;;6.67;100.00;102155.56;5999850;23;20034;-72
2022/10/03 05:31:43;;;;;;;3.65;3.55;;;;;;;5.41;100.00;101951.94;6002392;23;20704;-73
2022/10/03 05:34:22;;;;;;;4.40;4.10;;;;;;;6.63;100.00;102151.25;6025554;23;20023;-72
2022/10/03 05:37:03;;;;;;;3.70;3.60;;;;;;;6.63;100.00;102159.09;6008819;23;20023;-72
2022/10/03 05:39:58;;;;;;;4.13;3.90;;;;;;;6.59;100.00;102160.88;6021472;23;20043;-71
2022/10/03 05:42:35;;;;;;;4.97;4.68;;;;;;;6.54;100.00;102153.09;6020196;23;20078;-72
2022/10/03 05:45:29;;;;;;;4.70;4.30;;;;;;;6.42;100.00;102129.78;6034439;23;20305;-72
2022/10/03 05:48:17;;;;;;;4.15;3.95;;;;;;;6.66;100.00;102166.91;5998890;23;20015;-71
2022/10/03 05:51:10;;;;;;;4.15;3.95;;;;;;;6.75;100.00;102161.53;6023578;23;20031;-71
2022/10/03 05:53:55;;;;;;;4.00;3.70;;;;;;;6.82;100.00;102163.19;6024538;23;20019;-71
2022/10/03 05:56:46;;;;;;;4.50;4.25;;;;;;;6.90;100.00;102174.41;6024362;23;20365;-71
2022/10/03 05:59:50;;;;;;;4.18;3.92;;;;;;;6.95;100.00;102177.78;6025893;23;20453;-73
2022/10/03 06:02:54;;;;;;;4.78;4.40;;;;;;;7.01;100.00;102176.84;6020133;23;20459;-70
2022/10/03 06:05:31;;;;;;;4.60;4.30;;;;;;;7.08;100.00;102172.44;6024680;23;20094;-71
2022/10/03 06:08:25;;;;;;;5.03;4.72;;;;;;;7.15;100.00;102169.69;6030523;23;20025;-71
2022/10/03 06:11:33;;;;;;;4.50;4.15;;;;;;;7.19;100.00;102173.97;5992807;23;20027;-71
2022/10/03 06:14:31;;;;;;;4.75;4.45;;;;;;;7.06;100.00;102148.97;6020206;23;20090;-70
2022/10/03 06:17:48;;;;;;;4.05;3.85;;;;;;;7.30;100.00;102178.22;6023420;23;20043;-71
2022/10/03 06:20:40;;;;;;;4.40;4.20;;;;;;;7.32;100.00;102176.44;5945081;23;20039;-70
2022/10/03 06:23:34;;;;;;;4.88;4.57;;;;;;;7.35;100.00;102184.22;5994903;23;20232;-71
2022/10/03 06:26:44;;;;;;;4.40;4.20;;;;;;;7.34;100.00;102187.72;6021756;23;20031;-71
2022/10/03 06:29:41;;;;;;;4.53;4.32;;;;;;;7.36;100.00;102180.72;5979247;23;20062;-72
2022/10/03 06:32:13;;;;;;;4.40;4.10;;;;;;;7.39;100.00;102183.28;6021240;23;20022;-70
2022/10/03 06:34:53;;;;;;;6.95;4.55;;;;;;;7.42;100.00;102188.47;6024955;23;20026;-71
2022/10/03 06:37:57;;;;;;;4.38;4.18;;;;;;;7.33;100.00;102162.47;6020726;23;20034;-70
2022/10/03 06:41:01;;;;;;;4.20;4.00;;;;;;;7.68;100.00;102189.81;6024186;23;20051;-71
2022/10/03 06:43:48;;;;;;;4.50;4.00;;;;;;;7.91;100.00;102185.06;6024395;23;20035;-70
2022/10/03 06:46:46;;;;;;;4.57;4.38;;;;;;;8.16;100.00;102171.56;6022599;23;20102;-71
2022/10/03 06:49:49;;;;;;;5.15;4.80;;;;;;;8.25;100.00;102168.75;6017482;23;20034;-71
2022/10/03 06:52:24;;;;;;;8.15;5.35;;;;;;;8.23;100.00;102136.53;6021349;23;20090;-71
2022/10/03 06:55:23;;;;;;;5.47;5.18;;;;;;;8.54;100.00;102152.53;6018829;23;20098;-71
2022/10/03 06:58:27;;;;;;;5.13;4.75;;;;;;;8.81;100.00;102176.41;6021554;23;20191;-71
2022/10/03 07:00:59;;;;;;;5.47;5.07;;;;;;;8.67;100.00;102154.91;5997522;23;20707;-70
2022/10/03 07:03:39;;;;;;;5.50;5.10;;;;;;;8.81;100.00;102180.78;6018733;23;20473;-71
2022/10/03 07:06:20;;;;;;;5.57;5.25;;;;;;;8.92;100.00;102187.53;6021457;23;20403;-71
2022/10/03 07:09:07;;;;;;;6.25;5.75;;;;;;;8.99;100.00;102189.09;6015642;23;20697;-71
2022/10/03 07:11:36;;;;;;;5.20;4.90;;;;;;;8.92;100.00;102187.53;6019170;23;20254;-71
2022/10/03 07:14:27;;;;;;;5.10;4.80;;;;;;;9.05;100.00;102192.50;5971019;23;20023;-71
2022/10/03 07:17:14;;;;;;;5.88;5.47;;;;;;;9.11;100.00;102187.97;6019095;23;20038;-71
2022/10/03 07:20:14;;;;;;;5.22;4.82;;;;;;;9.22;100.00;102192.09;6026947;23;20034;-71
2022/10/03 07:23:01;;;;;;;6.03;5.63;;;;;;;9.36;100.00;102192.66;6002794;23;20031;-71
2022/10/03 07:25:40;;;;;;;5.05;4.78;;;;;;;9.47;100.00;102195.03;5963139;23;20397;-70
2022/10/03 07:28:17;;;;;;;6.53;5.97;;;;;;;9.46;100.00;102196.81;6024067;23;20343;-71
2022/10/03 07:31:32;;;;;;;5.20;4.90;;;;;;;9.53;100.00;102206.22;6017796;23;20290;-71
2022/10/03 07:34:17;;;;;;;5.75;5.35;;;;;;;9.55;100.00;102212.31;5987206;23;20006;-71
2022/10/03 07:40:12;;;;;;;5.18;4.88;;;;;;;9.90;100.00;102217.59;6018510;23;20039;-71
2022/10/03 07:42:57;;;;;;;8.05;6.28;;;;;;;10.17;100.00;102242.25;5992849;23;20516;-70
2022/10/03 07:45:30;;;;;;;6.18;5.78;;;;;;;10.47;100.00;102218.78;6025553;23;20130;-71
2022/10/03 07:48:17;;;;;;;6.28;5.78;;;;;;;10.77;100.00;102217.06;5997030;23;20027;-70
2022/10/03 07:51:16;;;;;;;5.85;5.38;;;;;;;11.08;100.00;102218.78;6020004;23;20364;-71
2022/10/03 07:54:19;;;;;;;6.95;6.45;;;;;;;11.30;100.00;102226.88;5985221;23;20024;-71
2022/10/03 07:57:04;;;;;;;5.93;5.57;;;;;;;11.29;100.00;102231.28;6016395;23;20027;-71
2022/10/03 08:00:00;;;;;;;8.23;5.97;;;;;;;11.42;100.00;102226.47;6021889;23;20067;-71
2022/10/03 08:03:09;;;;;;;9.70;6.85;;;;;;;11.37;100.00;102220.53;5987173;23;20556;-71
2022/10/03 08:06:07;;;;;;;7.18;6.10;;;;;;;11.52;100.00;102240.19;5974479;23;20053;-71
2022/10/03 08:08:51;;;;;;;14.50;5.60;;;;;;;10.82;100.00;102068.06;6021898;23;20580;-71
2022/10/03 08:11:36;;;;;;;11.40;5.72;;;;;;;11.96;100.00;102216.91;6016922;23;20028;-71
2022/10/03 08:14:23;;;;;;;6.13;5.72;;;;;;;12.31;100.00;102238.53;5992900;23;20019;-71
2022/10/03 08:17:07;;;;;;;5.80;5.40;;;;;;;12.47;100.00;102238.81;6010597;23;20093;-68
2022/10/03 08:20:04;;;;;;;6.28;5.95;;;;;;;12.72;100.00;102238.81;6013165;23;20035;-72
2022/10/03 08:23:13;;;;;;;9.68;6.25;;;;;;;12.78;100.00;102241.22;6017967;23;20150;-72
2022/10/03 08:26:17;;;;;;;10.25;6.43;;;;;;;12.83;100.00;102243.69;6020528;23;20042;-71
2022/10/03 08:28:49;;;;;;;6.45;6.00;;;;;;;12.90;100.00;102248.66;6020979;23;20022;-71
2022/10/03 08:31:34;;;;;;;6.93;6.22;;;;;;;13.10;100.00;102250.56;5954212;23;20027;-71
2022/10/03 08:34:32;;;;;;;6.05;5.65;;;;;;;13.29;100.00;102255.13;6022060;23;20051;-71
2022/10/03 08:37:21;;;;;;;7.03;5.45;;;;;;;13.39;100.00;102255.66;6017188;23;20015;-71
2022/10/03 08:40:40;;;;;;;6.70;6.20;;;;;;;13.38;100.00;102256.59;6030941;23;20478;-70
2022/10/03 08:43:37;;;;;;;8.27;5.65;;;;;;;13.38;100.00;102254.81;5943340;23;20030;-72
2022/10/03 08:46:10;;;;;;;6.82;6.13;;;;;;;13.31;100.00;102248.03;6018413;23;20195;-71
2022/10/03 08:49:01;;;;;;;6.65;6.15;;;;;;;13.23;100.00;102243.06;6023023;23;21121;-71
2022/10/03 08:51:52;;;;;;;6.55;6.05;;;;;;;13.22;100.00;102249.25;5991742;23;20343;-72
2022/10/03 08:54:43;;;;;;;6.25;5.85;;;;;;;12.97;100.00;102241.41;6021894;23;20246;-71
2022/10/03 08:57:44;;;;;;;12.07;6.88;;;;;;;12.98;100.00;102249.25;6007416;23;20134;-71
2022/10/03 09:00:18;;;;;;;7.07;6.45;;;;;;;12.88;100.00;102241.75;6011318;23;20077;-71
2022/10/03 09:03:22;;;;;;;14.70;6.38;;;;;;;13.05;100.00;102244.63;6019142;23;20018;-72
2022/10/03 09:06:29;;;;;;;6.97;6.38;;;;;;;13.31;100.00;102240.13;6020591;23;20046;-73
2022/10/03 09:09:23;;;;;;;7.15;6.45;;;;;;;13.62;100.00;102247.72;6016380;23;20335;-72
2022/10/03 09:12:27;;;;;;;10.85;6.03;;;;;;;13.87;100.00;102241.41;6023363;23;20782;-70
2022/10/03 09:15:33;;;;;;;6.32;5.95;;;;;;;13.90;100.00;102242.16;6005729;23;20527;-71
2022/10/03 09:18:11;;;;;;;8.57;5.70;;;;;;;13.96;100.00;102247.19;6026120;23;20559;-71
2022/10/03 09:21:16;;;;;;;12.77;11.95;;;;;;;14.07;100.00;102237.94;5897426;23;20205;-72
2022/10/03 09:23:55;;;;;;;10.93;5.78;;;;;;;14.18;100.00;102241.00;6026223;23;20027;-71
2022/10/03 09:26:25;;;;;;;10.52;6.18;;;;;;;14.44;100.00;102250.44;6008230;23;20023;-72
2022/10/03 09:29:17;;;;;;;6.18;5.78;;;;;;;14.63;100.00;102252.31;6001068;23;20003;-72
2022/10/03 09:32:30;;;;;;;14.50;6.35;;;;;;;14.80;100.00;102230.41;6000188;23;20057;-71
2022/10/03 09:35:08;;;;;;;8.75;6.97;;;;;;;14.91;100.00;102243.97;6026879;23;20431;-72
2022/10/03 09:38:03;;;;;;;7.95;7.18;;;;;;;14.92;100.00;102249.22;6021380;23;20552;-72
2022/10/03 09:40:47;;;;;;;9.10;6.93;;;;;;;15.06;100.00;102245.09;6028450;23;20093;-72
2022/10/03 09:43:27;;;;;;;6.57;6.18;;;;;;;15.28;100.00;102243.16;6002321;23;20023;-72
2022/10/03 09:46:29;;;;;;;9.77;6.32;;;;;;;15.55;100.00;102232.16;6020157;23;20039;-72
2022/10/03 09:49:37;;;;;;;8.50;6.00;;;;;;;15.11;100.00;102081.75;6021363;23;20042;-71
2022/10/03 09:52:21;;;;;;;5.93;5.55;;;;;;;15.93;100.00;102230.28;6026023;23;20031;-72
2022/10/03 09:55:10;;;;;;;7.93;5.88;;;;;;;16.00;100.00;102225.56;6007411;23;20082;-71
2022/10/03 09:57:56;;;;;;;6.18;5.57;;;;;;;16.06;100.00;102219.09;6032169;23;20083;-71
2022/10/03 10:00:40;;;;;;;6.53;5.88;;;;;;;16.20;100.00;102205.16;6024041;23;20034;-71
2022/10/03 10:03:42;;;;;;;10.38;6.25;;;;;;;16.69;100.00;102219.28;5992702;23;20027;-71
2022/10/03 10:06:24;;;;;;;8.23;6.00;;;;;;;16.26;96.57;102196.88;6014791;23;20086;-71
2022/10/03 10:09:37;;;;;;;6.55;5.63;;;;;;;16.20;100.00;102219.25;5989683;23;20146;-71
2022/10/03 10:12:19;;;;;;;7.70;5.95;;;;;;;17.02;99.43;102229.06;6021589;23;20026;-72
2022/10/03 10:15:13;;;;;;;6.38;5.95;;;;;;;17.00;92.30;102212.38;5983987;23;20083;-72
2022/10/03 10:17:43;;;;;;;6.60;5.85;;;;;;;16.73;91.96;102218.19;5960905;23;20047;-72
2022/10/03 10:20:31;;;;;;;6.15;5.75;;;;;;;17.07;95.23;102226.16;6017315;23;20031;-71
2022/10/03 10:23:16;;;;;;;8.50;5.80;;;;;;;17.29;94.22;102216.03;6000948;23;20425;-72
2022/10/03 10:26:22;;;;;;;5.57;5.18;;;;;;;17.59;92.44;102219.69;6025085;23;20027;-72
2022/10/03 10:29:15;;;;;;;5.97;5.43;;;;;;;17.84;90.78;102220.03;6010386;23;20141;-71
2022/10/03 10:32:08;;;;;;;5.15;4.90;;;;;;;18.12;88.97;102236.97;6022273;23;20031;-73
2022/10/03 10:35:14;;;;;;;6.00;5.50;;;;;;;17.43;84.37;102215.25;6005999;23;20027;-72
2022/10/03 10:38:02;;;;;;;6.13;5.53;;;;;;;17.46;86.10;102207.13;6035377;23;20529;-72
2022/10/03 10:40:50;;;;;;;7.35;6.15;;;;;;;17.44;84.16;102206.38;6004995;23;20093;-71
2022/10/03 10:43:29;;;;;;;6.28;5.88;;;;;;;18.05;86.44;102212.56;5985381;23;20023;-72
2022/10/03 10:46:33;;;;;;;5.80;5.50;;;;;;;18.21;84.04;102162.03;6018541;23;20035;-71
2022/10/03 10:49:31;;;;;;;5.40;5.10;;;;;;;18.66;80.69;102202.69;5973152;23;20023;-72
2022/10/03 10:52:22;;;;;;;5.72;5.22;;;;;;;18.61;78.43;102198.59;6003527;23;20630;-71
2022/10/03 10:55:26;;;;;;;6.60;6.10;;;;;;;17.74;78.94;102206.41;6018481;23;20423;-71
2022/10/03 10:58:05;;;;;;;5.30;5.00;;;;;;;18.17;78.45;102212.78;6014205;23;20062;-71
2022/10/03 11:00:40;;;;;;;5.40;5.00;;;;;;;18.28;77.57;102205.91;5982185;23;20434;-72
2022/10/03 11:03:49;;;;;;;5.85;5.40;;;;;;;18.24;78.60;102203.50;6024245;23;20042;-71
2022/10/03 11:06:37;;;;;;;7.30;5.45;;;;;;;18.08;76.33;102208.88;5971881;23;20497;-71
2022/10/03 11:09:41;;;;;;;5.22;4.93;;;;;;;18.12;78.59;102213.06;6020395;23;20034;-71
2022/10/03 11:13:01;;;;;;;5.10;4.90;;;;;;;17.83;76.39;102218.31;5997879;23;20369;-71
2022/10/03 11:15:49;;;;;;;5.78;5.03;;;;;;;17.79;80.28;102202.63;6020257;23;20114;-71
2022/10/03 11:19:03;;;;;;;6.28;5.97;;;;;;;17.37;79.57;102218.25;6022618;23;20668;-72
2022/10/03 11:21:58;;;;;;;7.38;6.72;;;;;;;17.19;80.08;102219.31;6020078;23;20442;-72
2022/10/03 11:24:43;;;;;;;6.50;5.30;;;;;;;17.52;82.37;102216.56;5993837;23;20023;-72
2022/10/03 11:27:43;;;;;;;5.65;5.07;;;;;;;17.45;82.44;102213.38;6022383;23;20256;-72
2022/10/03 11:30:47;;;;;;;4.78;4.57;;;;;;;17.68;79.05;102212.06;6019543;23;20477;-72
2022/10/03 11:33:38;;;;;;;5.25;4.95;;;;;;;17.92;80.39;102212.47;6015327;23;20015;-72
2022/10/03 11:36:31;;;;;;;5.20;4.90;;;;;;;18.21;73.24;102209.00;6013697;23;20971;-72
2022/10/03 11:39:18;;;;;;;5.73;5.40;;;;;;;18.33;72.27;102197.63;6015475;23;20032;-72
2022/10/03 11:42:10;;;;;;;5.18;4.88;;;;;;;17.87;71.31;102205.69;5996667;23;20297;-72
2022/10/03 11:44:47;;;;;;;5.50;4.90;;;;;;;16.40;73.07;101970.91;6018874;23;20031;-72
2022/10/03 11:47:25;;;;;;;5.57;5.00;;;;;;;17.46;76.67;102204.47;6015058;23;20409;-72
2022/10/03 11:50:20;;;;;;;5.20;5.00;;;;;;;17.25;77.34;102197.75;6016592;23;20039;-72
2022/10/03 11:53:19;;;;;;;5.30;5.00;;;;;;;17.88;74.40;102204.75;6014492;23;20033;-72
2022/10/03 11:55:56;;;;;;;5.93;5.28;;;;;;;17.91;73.29;102201.91;6021390;23;20027;-72
2022/10/03 11:58:57;;;;;;;5.50;5.20;;;;;;;17.85;74.59;102199.63;6022200;23;20030;-72
2022/10/03 12:01:41;;;;;;;5.38;4.90;;;;;;;17.65;72.26;102168.91;5973994;23;20707;-70
2022/10/03 12:04:34;;;;;;;5.43;5.13;;;;;;;17.75;73.41;102196.63;6022576;23;20046;-72
2022/10/03 12:10:16;;;;;;;5.22;5.00;;;;;;;17.71;73.17;102209.22;6023284;23;20038;-73
2022/10/03 12:12:47;;;;;;;5.32;5.03;;;;;;;17.62;74.28;102180.56;6022908;23;20049;-71
2022/10/03 12:15:33;;;;;;;5.20;4.90;;;;;;;17.49;73.55;102198.13;5998385;23;20434;-73
2022/10/03 12:18:12;;;;;;;5.32;4.88;;;;;;;17.24;75.13;102165.06;6002804;23;20619;-72
2022/10/03 12:21:04;;;;;;;5.88;5.20;;;;;;;17.44;76.18;102190.44;6016601;23;20056;-72
2022/10/03 12:23:52;;;;;;;5.20;4.90;;;;;;;17.48;75.96;102199.06;5992347;23;20405;-71
2022/10/03 12:26:46;;;;;;;4.95;4.75;;;;;;;17.20;75.73;102154.69;6022027;23;20027;-71
2022/10/03 12:29:18;;;;;;;5.20;4.90;;;;;;;17.50;76.18;102179.47;5977650;23;20015;-72
2022/10/03 12:31:59;;;;;;;5.40;5.10;;;;;;;17.72;79.16;102186.16;6022466;23;20179;-71
2022/10/03 12:34:44;;;;;;;5.55;5.20;;;;;;;17.90;74.85;102190.44;6009633;23;20167;-72
2022/10/03 12:37:32;;;;;;;5.85;5.40;;;;;;;17.66;73.53;102170.59;6025710;23;20390;-72
2022/10/03 12:40:09;;;;;;;5.32;5.03;;;;;;;17.90;71.91;102178.94;6017473;23;20027;-72
2022/10/03 12:42:46;;;;;;;5.18;4.93;;;;;;;17.51;72.76;102159.94;6025794;23;20088;-72
2022/10/03 12:45:30;;;;;;;5.50;5.20;;;;;;;17.68;73.10;102185.50;5991815;23;20011;-72
2022/10/03 12:48:32;;;;;;;5.45;5.07;;;;;;;17.84;74.15;102182.84;6027599;23;20118;-71
2022/10/03 12:51:14;;;;;;;5.65;5.32;;;;;;;17.49;74.97;102156.50;6020804;23;20164;-71
2022/10/03 12:53:55;;;;;;;5.03;4.82;;;;;;;17.35;75.88;102114.00;5995602;23;20082;-72
2022/10/03 12:56:37;;;;;;;5.60;5.10;;;;;;;18.37;75.07;102190.31;6025615;23;20031;-71
2022/10/03 12:59:09;;;;;;;5.05;4.85;;;;;;;18.46;71.76;102139.22;6009531;23;20593;-71
2022/10/03 13:01:54;;;;;;;5.40;5.00;;;;;;;18.37;70.00;102185.84;6009982;23;20019;-71
2022/10/03 13:04:41;;;;;;;5.40;5.10;;;;;;;18.16;70.01;102150.81;6025032;23;20428;-71
2022/10/03 13:07:51;;;;;;;5.20;4.90;;;;;;;18.44;71.95;102181.88;6022454;23;20590;-71
2022/10/03 13:10:49;;;;;;;5.50;5.10;;;;;;;18.41;71.65;102189.19;6026933;23;20113;-70
2022/10/03 13:13:51;;;;;;;5.38;5.07;;;;;;;18.53;71.11;102186.63;6015788;23;20077;-71
2022/10/03 13:16:32;;;;;;;5.65;5.18;;;;;;;17.78;71.48;102147.78;6027325;23;21620;-72
2022/10/03 13:19:08;;;;;;;5.10;4.80;;;;;;;18.36;71.69;102188.59;6021940;23;20022;-72
2022/10/03 13:22:11;;;;;;;5.13;4.93;;;;;;;18.74;68.58;102160.50;5988562;23;20031;-70
2022/10/03 13:24:48;;;;;;;5.05;4.85;;;;;;;18.97;65.66;102133.41;6020286;23;20115;-72
2022/10/03 13:27:34;;;;;;;5.97;5.63;;;;;;;18.82;66.86;102170.69;5999342;23;20516;-71
2022/10/03 13:30:16;;;;;;;5.38;5.13;;;;;;;18.70;67.47;102142.16;6017288;23;20011;-72
2022/10/03 13:33:14;;;;;;;5.88;5.15;;;;;;;19.06;66.51;102164.72;5995297;23;20015;-72
2022/10/03 13:35:58;;;;;;;5.60;5.30;;;;;;;19.43;66.63;102157.84;5991042;23;20423;-72